createdAt,value
2022-11-18T15:47:15.580Z,100751.34
2022-11-18T15:50:19.421Z,100759.75
2022-11-18T15:53:23.099Z,100759.44
2022-11-18T15:56:28.992Z,100764.59
2022-11-18T15:59:32.682Z,100771.94
2022-11-18T16:02:37.913Z,100777.34
2022-11-18T16:05:41.518Z,100783.34
2022-11-18T16:08:45.171Z,100787.06
2022-11-18T16:12:06.259Z,100789.19
2022-11-18T16:15:27.579Z,100780.06
2022-11-18T16:18:35.433Z,100794.19
2022-11-18T16:21:46.361Z,100800.19
2022-11-18T16:24:53.117Z,100810.38
2022-11-18T16:27:59.596Z,100798.72
2022-11-18T16:31:25.225Z,100799.59
2022-11-18T16:34:30.410Z,100801.91
2022-11-18T16:37:34.091Z,100807.59
2022-11-18T16:40:37.699Z,100813.00
2022-11-18T16:43:41.375Z,100819.47
2022-11-18T16:46:48.198Z,100823.50
2022-11-18T16:49:53.256Z,100826.06
2022-11-18T16:52:58.291Z,100828.63
2022-11-18T16:56:04.104Z,100830.91
2022-11-18T16:59:12.277Z,100836.81
2022-11-18T17:02:16.030Z,100842.13
2022-11-18T17:05:21.166Z,100841.69
2022-11-18T17:08:24.824Z,100843.28
2022-11-18T17:11:28.623Z,100844.03
2022-11-18T17:14:32.317Z,100847.88
2022-11-18T17:17:35.960Z,100855.28
2022-11-18T17:20:40.903Z,100854.41
2022-11-18T17:23:45.523Z,100858.28
2022-11-18T17:26:50.079Z,100864.00
2022-11-18T17:29:53.791Z,100863.56
2022-11-18T17:32:57.514Z,100870.53
2022-11-18T17:36:03.464Z,100871.81
2022-11-18T17:39:07.509Z,100869.41
2022-11-18T17:42:17.895Z,100864.00
2022-11-18T17:45:21.523Z,100867.97
2022-11-18T17:48:26.824Z,100876.53
2022-11-18T17:51:32.751Z,100871.13
2022-11-18T17:54:36.736Z,100875.34
2022-11-18T17:57:40.337Z,100872.19
2022-11-18T18:00:44.000Z,100880.94
2022-11-18T18:03:47.689Z,100883.94
2022-11-18T18:06:53.343Z,100885.50
2022-11-18T18:09:57.092Z,100891.91
2022-11-18T18:13:18.444Z,100897.84
2022-11-18T18:16:22.408Z,100906.66
2022-11-18T18:19:26.432Z,100905.78
2022-11-18T18:22:31.498Z,100917.16
2022-11-18T18:25:35.340Z,100926.81
2022-11-18T18:28:39.598Z,100937.09
2022-11-18T18:31:43.219Z,100940.47
2022-11-18T18:34:47.211Z,100937.09
2022-11-18T18:37:52.224Z,100942.88
2022-11-18T18:40:55.961Z,100947.28
2022-11-18T18:43:59.713Z,100942.91
2022-11-18T18:47:02.429Z,100945.44
2022-11-18T18:50:06.905Z,100957.09
2022-11-18T18:53:11.952Z,100956.91
2022-11-18T18:56:15.568Z,100955.75
2022-11-18T18:59:19.159Z,100962.88
2022-11-18T19:02:22.845Z,100957.75
2022-11-18T19:05:53.628Z,100964.31
2022-11-18T19:08:51.902Z,100954.31
2022-11-18T19:12:13.531Z,100963.16
2022-11-18T19:15:17.340Z,100969.94
2022-11-18T19:18:23.443Z,100971.94
2022-11-18T19:21:27.256Z,100963.97
2022-11-18T19:24:48.559Z,100968.78
2022-11-18T19:27:53.728Z,100977.34
2022-11-18T19:31:00.237Z,100979.91
2022-11-18T19:34:03.814Z,100973.34
2022-11-18T19:37:07.446Z,100987.53
2022-11-18T19:40:13.086Z,100983.84
2022-11-18T19:43:16.634Z,100984.41
2022-11-18T19:46:20.273Z,100991.50
2022-11-18T19:49:24.216Z,100996.88
2022-11-18T19:52:28.152Z,101001.66
2022-11-18T19:55:33.259Z,101009.88
2022-11-18T19:58:40.223Z,100993.94
2022-11-18T20:01:44.829Z,101004.72
2022-11-18T20:05:02.605Z,101012.63
2022-11-18T20:08:06.696Z,101010.91
2022-11-18T20:11:13.697Z,101016.75
2022-11-18T20:14:17.399Z,101024.59
2022-11-18T20:17:21.031Z,101020.72
2022-11-18T20:20:24.706Z,101016.31
2022-11-18T20:23:28.567Z,101022.25
2022-11-18T20:26:35.934Z,101025.44
2022-11-18T20:29:39.573Z,101021.06
2022-11-18T20:32:43.187Z,101017.97
2022-11-18T20:35:46.824Z,101018.94
2022-11-18T20:38:52.110Z,101011.72
2022-11-18T20:42:14.322Z,101022.72
2022-11-18T20:45:17.991Z,101032.03
2022-11-18T20:48:21.660Z,101036.84
2022-11-18T20:51:26.557Z,101037.34
2022-11-18T20:54:30.143Z,101042.47
2022-11-18T20:57:35.250Z,101052.81
2022-11-18T21:00:38.897Z,101056.94
2022-11-18T21:03:44.092Z,101064.28
2022-11-18T21:06:47.827Z,101071.78
2022-11-18T21:09:51.459Z,101060.16
2022-11-18T21:13:13.967Z,101066.28
2022-11-18T21:16:17.776Z,101066.66
2022-11-18T21:19:21.696Z,101071.56
2022-11-18T21:22:25.494Z,101071.00
2022-11-18T21:25:29.217Z,101078.84
2022-11-18T21:28:34.319Z,101081.41
2022-11-18T21:31:38.163Z,101076.91
2022-11-18T21:34:41.800Z,101084.75
2022-11-18T21:37:45.479Z,101093.66
2022-11-18T21:40:49.039Z,101086.94
2022-11-18T21:44:09.736Z,101095.50
2022-11-18T21:47:13.433Z,101092.81
2022-11-18T21:50:17.791Z,101108.75
2022-11-18T21:53:21.461Z,101106.06
2022-11-18T21:56:28.342Z,101109.63
2022-11-18T21:59:33.419Z,101104.13
2022-11-18T22:02:37.375Z,101110.34
2022-11-18T22:05:41.004Z,101105.47
2022-11-18T22:08:45.837Z,101111.72
2022-11-18T22:11:49.431Z,101107.22
2022-11-18T22:14:54.433Z,101122.25
2022-11-18T22:17:58.025Z,101114.31
2022-11-18T22:21:02.884Z,101113.94
2022-11-18T22:24:07.170Z,101115.66
2022-11-18T22:27:11.632Z,101114.91
2022-11-18T22:30:17.171Z,101117.09
2022-11-18T22:33:21.063Z,101121.75
2022-11-18T22:36:26.782Z,101123.63
2022-11-18T22:39:30.459Z,101127.66
2022-11-18T22:42:49.007Z,101125.47
2022-11-18T22:46:01.506Z,101126.44
2022-11-18T22:49:06.166Z,101125.34
2022-11-18T22:52:09.947Z,101135.00
2022-11-18T22:55:13.916Z,101140.41
2022-11-18T22:58:17.607Z,101140.16
2022-11-18T23:01:24.240Z,101145.16
2022-11-18T23:04:27.841Z,101157.50
2022-11-18T23:07:31.537Z,101150.44
2022-11-18T23:10:37.423Z,101155.06
2022-11-18T23:13:56.014Z,101152.38
2022-11-18T23:17:01.268Z,101158.50
2022-11-18T23:20:05.543Z,101172.41
2022-11-18T23:23:09.116Z,101177.06
